sensor_id;sensor_type;location;lat;lon;timestamp;pressure;altitude;pressure_sealevel;temperature;humidity
62697;BME280;48761;42.680;23.312;2023-02-04T00:01:07;94645.91;;;2.09;73.42
62697;BME280;48761;42.680;23.312;2023-02-04T00:03:33;94624.94;;;1.87;74.47
62697;BME280;48761;42.680;23.312;2023-02-04T00:05:59;94628.22;;;1.92;74.31
62697;BME280;48761;42.680;23.312;2023-02-04T00:08:25;94629.59;;;1.78;75.36
62697;BME280;48761;42.680;23.312;2023-02-04T00:10:51;94586.41;;;1.42;76.17
62697;BME280;48761;42.680;23.312;2023-02-04T00:13:17;94622.97;;;1.45;77.81
62697;BME280;48761;42.680;23.312;2023-02-04T00:15:43;94615.56;;;1.57;77.32
62697;BME280;48761;42.680;23.312;2023-02-04T00:18:09;94601.59;;;1.34;78.04
62697;BME280;48761;42.680;23.312;2023-02-04T00:20:35;94612.81;;;1.60;77.56
62697;BME280;48761;42.680;23.312;2023-02-04T00:23:01;94608.16;;;1.68;77.08
62697;BME280;48761;42.680;23.312;2023-02-04T00:25:27;94609.00;;;1.69;77.40
62697;BME280;48761;42.680;23.312;2023-02-04T00:27:53;94600.75;;;1.56;77.75
62697;BME280;48761;42.680;23.312;2023-02-04T00:30:19;94572.53;;;1.40;77.83
62697;BME280;48761;42.680;23.312;2023-02-04T00:32:44;94590.69;;;1.67;77.50
62697;BME280;48761;42.680;23.312;2023-02-04T00:35:13;94592.16;;;1.52;78.09
62697;BME280;48761;42.680;23.312;2023-02-04T00:37:40;94598.13;;;1.56;77.73
62697;BME280;48761;42.680;23.312;2023-02-04T00:40:06;94578.34;;;1.25;79.06
62697;BME280;48761;42.680;23.312;2023-02-04T00:42:32;94605.06;;;1.57;77.95
62697;BME280;48761;42.680;23.312;2023-02-04T00:44:58;94598.72;;;1.40;78.69
62697;BME280;48761;42.680;23.312;2023-02-04T00:47:24;94587.66;;;1.56;77.64
62697;BME280;48761;42.680;23.312;2023-02-04T00:49:50;94584.84;;;1.83;76.96
62697;BME280;48761;42.680;23.312;2023-02-04T00:52:15;94575.75;;;1.00;79.35
62697;BME280;48761;42.680;23.312;2023-02-04T00:54:41;94584.63;;;1.20;79.26
62697;BME280;48761;42.680;23.312;2023-02-04T00:57:07;94556.22;;;0.85;80.89
62697;BME280;48761;42.680;23.312;2023-02-04T00:59:33;94563.19;;;1.09;80.08
62697;BME280;48761;42.680;23.312;2023-02-04T01:01:59;94570.88;;;0.89;81.16
62697;BME280;48761;42.680;23.312;2023-02-04T01:04:25;94555.91;;;0.43;82.89
62697;BME280;48761;42.680;23.312;2023-02-04T01:06:51;94550.56;;;0.72;82.54
62697;BME280;48761;42.680;23.312;2023-02-04T01:09:17;94550.34;;;1.03;80.82
62697;BME280;48761;42.680;23.312;2023-02-04T01:11:43;94545.97;;;1.03;80.44
62697;BME280;48761;42.680;23.312;2023-02-04T01:14:09;94531.34;;;0.73;81.17
62697;BME280;48761;42.680;23.312;2023-02-04T01:16:34;94541.94;;;0.70;81.75
62697;BME280;48761;42.680;23.312;2023-02-04T01:19:00;94546.91;;;0.76;81.61
62697;BME280;48761;42.680;23.312;2023-02-04T01:21:26;94507.00;;;0.95;80.38
62697;BME280;48761;42.680;23.312;2023-02-04T01:23:52;94539.72;;;1.30;79.20
62697;BME280;48761;42.680;23.312;2023-02-04T01:26:18;94518.38;;;0.94;79.76
62697;BME280;48761;42.680;23.312;2023-02-04T01:28:46;94534.28;;;1.12;79.61
62697;BME280;48761;42.680;23.312;2023-02-04T01:31:12;94505.56;;;0.86;79.69
62697;BME280;48761;42.680;23.312;2023-02-04T01:33:39;94523.53;;;0.72;81.65
62697;BME280;48761;42.680;23.312;2023-02-04T01:36:05;94503.47;;;0.72;81.75
62697;BME280;48761;42.680;23.312;2023-02-04T01:38:31;94525.66;;;0.86;81.10
62697;BME280;48761;42.680;23.312;2023-02-04T01:40:57;94509.25;;;0.57;82.68
62697;BME280;48761;42.680;23.312;2023-02-04T01:43:23;94511.91;;;0.81;82.28
62697;BME280;48761;42.680;23.312;2023-02-04T01:45:50;94500.72;;;0.99;81.54
62697;BME280;48761;42.680;23.312;2023-02-04T01:48:18;94504.50;;;0.68;82.28
62697;BME280;48761;42.680;23.312;2023-02-04T01:50:47;94470.63;;;0.39;83.45
62697;BME280;48761;42.680;23.312;2023-02-04T01:53:20;94479.63;;;0.80;82.12
62697;BME280;48761;42.680;23.312;2023-02-04T01:55:47;94503.91;;;1.08;81.08
62697;BME280;48761;42.680;23.312;2023-02-04T01:58:14;94493.66;;;1.02;81.25
62697;BME280;48761;42.680;23.312;2023-02-04T02:00:40;94487.53;;;0.78;81.66
62697;BME280;48761;42.680;23.312;2023-02-04T02:03:06;94501.78;;;0.94;81.95
62697;BME280;48761;42.680;23.312;2023-02-04T02:05:39;94493.72;;;0.76;82.35
62697;BME280;48761;42.680;23.312;2023-02-04T02:08:06;94486.50;;;0.59;83.17
62697;BME280;48761;42.680;23.312;2023-02-04T02:10:34;94464.75;;;0.58;83.81
62697;BME280;48761;42.680;23.312;2023-02-04T02:13:02;94483.59;;;0.66;83.27
62697;BME280;48761;42.680;23.312;2023-02-04T02:15:28;94482.06;;;0.61;83.43
62697;BME280;48761;42.680;23.312;2023-02-04T02:17:55;94466.38;;;0.37;83.93
62697;BME280;48761;42.680;23.312;2023-02-04T02:20:23;94473.25;;;0.39;84.36
62697;BME280;48761;42.680;23.312;2023-02-04T02:25:32;94473.31;;;0.38;84.47
62697;BME280;48761;42.680;23.312;2023-02-04T02:27:59;94451.44;;;0.40;84.02
62697;BME280;48761;42.680;23.312;2023-02-04T02:30:27;94448.16;;;0.33;84.39
62697;BME280;48761;42.680;23.312;2023-02-04T02:32:54;94432.03;;;0.22;85.07
62697;BME280;48761;42.680;23.312;2023-02-04T02:35:20;94418.47;;;0.10;85.12
62697;BME280;48761;42.680;23.312;2023-02-04T02:37:46;94418.72;;;0.28;84.59
62697;BME280;48761;42.680;23.312;2023-02-04T02:40:12;94399.25;;;0.36;84.00
62697;BME280;48761;42.680;23.312;2023-02-04T02:42:38;94391.28;;;0.40;83.79
62697;BME280;48761;42.680;23.312;2023-02-04T02:45:14;94382.22;;;0.49;82.87
62697;BME280;48761;42.680;23.312;2023-02-04T02:47:42;94392.97;;;0.88;82.16
62697;BME280;48761;42.680;23.312;2023-02-04T02:50:11;94387.97;;;0.82;81.56
62697;BME280;48761;42.680;23.312;2023-02-04T02:52:40;94392.00;;;0.68;82.13
62697;BME280;48761;42.680;23.312;2023-02-04T02:55:13;94375.31;;;0.71;81.56
62697;BME280;48761;42.680;23.312;2023-02-04T02:57:39;94374.47;;;0.93;80.96
62697;BME280;48761;42.680;23.312;2023-02-04T03:00:16;94387.19;;;0.80;81.36
62697;BME280;48761;42.680;23.312;2023-02-04T03:02:44;94384.53;;;0.57;82.04
62697;BME280;48761;42.680;23.312;2023-02-04T03:05:10;94390.88;;;0.74;81.83
62697;BME280;48761;42.680;23.312;2023-02-04T03:07:37;94392.31;;;0.59;82.26
62697;BME280;48761;42.680;23.312;2023-02-04T03:10:03;94342.63;;;0.12;83.03
62697;BME280;48761;42.680;23.312;2023-02-04T03:12:29;94351.09;;;-0.05;83.85
62697;BME280;48761;42.680;23.312;2023-02-04T03:14:55;94397.34;;;0.17;84.34
62697;BME280;48761;42.680;23.312;2023-02-04T03:17:21;94413.03;;;0.17;84.39
62697;BME280;48761;42.680;23.312;2023-02-04T03:19:47;94387.34;;;0.28;83.66
62697;BME280;48761;42.680;23.312;2023-02-04T03:22:13;94389.63;;;0.38;83.63
62697;BME280;48761;42.680;23.312;2023-02-04T03:24:40;94394.84;;;0.38;83.51
62697;BME280;48761;42.680;23.312;2023-02-04T03:27:06;94387.34;;;0.52;82.68
62697;BME280;48761;42.680;23.312;2023-02-04T03:29:32;94383.94;;;0.50;82.94
62697;BME280;48761;42.680;23.312;2023-02-04T03:31:58;94375.03;;;0.54;82.20
62697;BME280;48761;42.680;23.312;2023-02-04T03:34:24;94391.41;;;0.60;82.02
62697;BME280;48761;42.680;23.312;2023-02-04T03:36:50;94391.94;;;0.92;80.76
62697;BME280;48761;42.680;23.312;2023-02-04T03:39:16;94382.00;;;1.00;79.91
62697;BME280;48761;42.680;23.312;2023-02-04T03:41:42;94368.63;;;0.86;79.81
62697;BME280;48761;42.680;23.312;2023-02-04T03:44:08;94362.41;;;1.11;79.54
62697;BME280;48761;42.680;23.312;2023-02-04T03:46:34;94373.88;;;1.29;78.55
62697;BME280;48761;42.680;23.312;2023-02-04T03:49:00;94362.03;;;1.20;79.12
62697;BME280;48761;42.680;23.312;2023-02-04T03:51:26;94368.44;;;1.13;78.72
62697;BME280;48761;42.680;23.312;2023-02-04T03:53:52;94364.41;;;1.48;78.03
62697;BME280;48761;42.680;23.312;2023-02-04T03:56:17;94323.00;;;1.35;77.73
62697;BME280;48761;42.680;23.312;2023-02-04T03:58:43;94322.47;;;1.27;77.17
62697;BME280;48761;42.680;23.312;2023-02-04T04:01:09;94337.66;;;1.39;78.30
62697;BME280;48761;42.680;23.312;2023-02-04T04:03:35;94319.97;;;1.03;78.54
62697;BME280;48761;42.680;23.312;2023-02-04T04:06:01;94326.38;;;0.95;79.00
62697;BME280;48761;42.680;23.312;2023-02-04T04:08:27;94316.91;;;0.91;79.11
62697;BME280;48761;42.680;23.312;2023-02-04T04:10:53;94308.44;;;0.86;79.89
62697;BME280;48761;42.680;23.312;2023-02-04T04:13:19;94314.50;;;0.86;79.61
62697;BME280;48761;42.680;23.312;2023-02-04T04:15:45;94294.13;;;0.72;80.01
62697;BME280;48761;42.680;23.312;2023-02-04T04:18:11;94308.13;;;0.71;80.23
62697;BME280;48761;42.680;23.312;2023-02-04T04:20:36;94292.28;;;0.74;80.25
62697;BME280;48761;42.680;23.312;2023-02-04T04:23:02;94302.53;;;0.81;80.71
62697;BME280;48761;42.680;23.312;2023-02-04T04:25:28;94308.22;;;1.13;79.65
62697;BME280;48761;42.680;23.312;2023-02-04T04:27:54;94296.28;;;1.27;78.58
62697;BME280;48761;42.680;23.312;2023-02-04T04:30:20;94317.59;;;1.19;79.19
62697;BME280;48761;42.680;23.312;2023-02-04T04:32:46;94318.06;;;1.06;79.97
62697;BME280;48761;42.680;23.312;2023-02-04T04:35:12;94313.31;;;1.16;80.14
62697;BME280;48761;42.680;23.312;2023-02-04T04:37:38;94327.19;;;1.39;79.36
62697;BME280;48761;42.680;23.312;2023-02-04T04:40:04;94331.13;;;1.50;78.76
62697;BME280;48761;42.680;23.312;2023-02-04T04:42:30;94331.38;;;1.64;78.22
62697;BME280;48761;42.680;23.312;2023-02-04T04:44:56;94333.75;;;1.71;78.06
62697;BME280;48761;42.680;23.312;2023-02-04T04:47:22;94307.94;;;1.61;78.33
62697;BME280;48761;42.680;23.312;2023-02-04T04:49:47;94310.81;;;1.55;78.18
62697;BME280;48761;42.680;23.312;2023-02-04T04:52:13;94308.19;;;1.55;77.97
62697;BME280;48761;42.680;23.312;2023-02-04T04:54:39;94340.53;;;1.75;78.14
62697;BME280;48761;42.680;23.312;2023-02-04T04:57:05;94343.13;;;1.76;78.22
62697;BME280;48761;42.680;23.312;2023-02-04T04:59:31;94326.25;;;1.82;77.83
62697;BME280;48761;42.680;23.312;2023-02-04T05:01:57;94330.13;;;2.13;76.21
62697;BME280;48761;42.680;23.312;2023-02-04T05:04:23;94330.56;;;2.43;75.61
62697;BME280;48761;42.680;23.312;2023-02-04T05:06:49;94336.94;;;2.56;75.77
62697;BME280;48761;42.680;23.312;2023-02-04T05:09:15;94327.88;;;2.64;75.88
62697;BME280;48761;42.680;23.312;2023-02-04T05:11:40;94313.56;;;2.52;75.60
62697;BME280;48761;42.680;23.312;2023-02-04T05:14:06;94335.50;;;2.68;76.32
62697;BME280;48761;42.680;23.312;2023-02-04T05:16:32;94334.47;;;2.73;76.32
62697;BME280;48761;42.680;23.312;2023-02-04T05:18:58;94347.38;;;2.77;76.32
62697;BME280;48761;42.680;23.312;2023-02-04T05:21:24;94335.97;;;2.59;76.33
62697;BME280;48761;42.680;23.312;2023-02-04T05:23:50;94365.38;;;2.66;76.63
62697;BME280;48761;42.680;23.312;2023-02-04T05:26:16;94354.88;;;2.66;76.79
62697;BME280;48761;42.680;23.312;2023-02-04T05:28:41;94378.50;;;2.66;76.83
62697;BME280;48761;42.680;23.312;2023-02-04T05:31:07;94370.28;;;2.54;77.46
62697;BME280;48761;42.680;23.312;2023-02-04T05:33:33;94386.88;;;2.74;77.09
62697;BME280;48761;42.680;23.312;2023-02-04T05:35:59;94394.97;;;2.69;77.07
62697;BME280;48761;42.680;23.312;2023-02-04T05:38:25;94407.53;;;2.63;77.70
62697;BME280;48761;42.680;23.312;2023-02-04T05:40:51;94388.56;;;2.56;77.59
62697;BME280;48761;42.680;23.312;2023-02-04T05:43:19;94396.25;;;2.61;78.19
62697;BME280;48761;42.680;23.312;2023-02-04T05:45:45;94382.63;;;2.52;78.43
62697;BME280;48761;42.680;23.312;2023-02-04T05:48:11;94393.78;;;2.57;78.38
62697;BME280;48761;42.680;23.312;2023-02-04T05:50:37;94407.69;;;2.60;77.91
62697;BME280;48761;42.680;23.312;2023-02-04T05:53:03;94392.84;;;2.58;77.72
62697;BME280;48761;42.680;23.312;2023-02-04T05:55:29;94375.97;;;2.45;77.09
62697;BME280;48761;42.680;23.312;2023-02-04T05:57:54;94368.56;;;2.53;76.18
62697;BME280;48761;42.680;23.312;2023-02-04T06:00:20;94359.94;;;2.51;75.83
62697;BME280;48761;42.680;23.312;2023-02-04T06:02:46;94355.25;;;2.58;75.22
62697;BME280;48761;42.680;23.312;2023-02-04T06:05:12;94343.19;;;2.54;74.79
62697;BME280;48761;42.680;23.312;2023-02-04T06:07:38;94365.47;;;2.64;74.40
62697;BME280;48761;42.680;23.312;2023-02-04T06:10:04;94368.44;;;2.56;74.74
62697;BME280;48761;42.680;23.312;2023-02-04T06:12:30;94367.59;;;2.75;74.19
62697;BME280;48761;42.680;23.312;2023-02-04T06:14:56;94366.56;;;2.97;73.77
62697;BME280;48761;42.680;23.312;2023-02-04T06:17:22;94385.72;;;2.99;73.21
62697;BME280;48761;42.680;23.312;2023-02-04T06:19:48;94384.06;;;3.34;72.41
62697;BME280;48761;42.680;23.312;2023-02-04T06:22:14;94390.44;;;3.47;71.64
62697;BME280;48761;42.680;23.312;2023-02-04T06:24:45;94353.00;;;3.24;70.93
62697;BME280;48761;42.680;23.312;2023-02-04T06:27:11;94393.78;;;3.51;70.75
62697;BME280;48761;42.680;23.312;2023-02-04T06:29:37;94387.78;;;3.30;70.63
62697;BME280;48761;42.680;23.312;2023-02-04T06:32:03;94393.66;;;3.17;70.16
62697;BME280;48761;42.680;23.312;2023-02-04T06:34:29;94396.81;;;3.24;70.08
62697;BME280;48761;42.680;23.312;2023-02-04T06:36:55;94398.00;;;3.18;69.73
62697;BME280;48761;42.680;23.312;2023-02-04T06:39:21;94402.00;;;3.25;69.33
62697;BME280;48761;42.680;23.312;2023-02-04T06:41:50;94358.63;;;3.17;69.54
62697;BME280;48761;42.680;23.312;2023-02-04T06:44:16;94378.19;;;3.11;69.47
62697;BME280;48761;42.680;23.312;2023-02-04T06:46:42;94372.13;;;3.09;69.58
62697;BME280;48761;42.680;23.312;2023-02-04T06:49:08;94378.22;;;3.46;68.65
62697;BME280;48761;42.680;23.312;2023-02-04T06:51:36;94375.91;;;3.40;67.77
62697;BME280;48761;42.680;23.312;2023-02-04T06:54:05;94373.19;;;3.59;67.29
62697;BME280;48761;42.680;23.312;2023-02-04T06:56:31;94395.97;;;4.12;67.15
62697;BME280;48761;42.680;23.312;2023-02-04T06:58:57;94368.88;;;4.28;65.55
62697;BME280;48761;42.680;23.312;2023-02-04T07:01:23;94381.00;;;4.81;63.64
62697;BME280;48761;42.680;23.312;2023-02-04T07:03:49;94379.81;;;4.87;63.60
62697;BME280;48761;42.680;23.312;2023-02-04T07:06:15;94358.88;;;5.16;62.81
62697;BME280;48761;42.680;23.312;2023-02-04T07:08:41;94368.69;;;5.61;61.23
62697;BME280;48761;42.680;23.312;2023-02-04T07:11:07;94362.75;;;5.41;60.31
62697;BME280;48761;42.680;23.312;2023-02-04T07:13:33;94351.84;;;5.64;60.74
62697;BME280;48761;42.680;23.312;2023-02-04T07:15:59;94339.09;;;6.01;59.80
62697;BME280;48761;42.680;23.312;2023-02-04T07:18:25;94367.59;;;6.25;58.56
62697;BME280;48761;42.680;23.312;2023-02-04T07:20:51;94371.84;;;6.28;58.10
62697;BME280;48761;42.680;23.312;2023-02-04T07:23:17;94359.69;;;5.80;58.40
62697;BME280;48761;42.680;23.312;2023-02-04T07:25:43;94333.75;;;5.72;59.01
62697;BME280;48761;42.680;23.312;2023-02-04T07:28:09;94351.59;;;5.98;58.66
62697;BME280;48761;42.680;23.312;2023-02-04T07:30:35;94348.72;;;6.17;58.12
62697;BME280;48761;42.680;23.312;2023-02-04T07:33:01;94341.88;;;6.44;57.92
62697;BME280;48761;42.680;23.312;2023-02-04T07:35:27;94357.22;;;6.66;56.74
62697;BME280;48761;42.680;23.312;2023-02-04T07:37:53;94360.88;;;6.78;56.28
62697;BME280;48761;42.680;23.312;2023-02-04T07:40:19;94355.13;;;6.86;55.72
62697;BME280;48761;42.680;23.312;2023-02-04T07:42:45;94354.38;;;6.84;55.85
62697;BME280;48761;42.680;23.312;2023-02-04T07:45:11;94317.06;;;6.89;55.05
62697;BME280;48761;42.680;23.312;2023-02-04T07:47:37;94359.09;;;7.62;54.51
62697;BME280;48761;42.680;23.312;2023-02-04T07:50:03;94321.66;;;7.55;53.53
62697;BME280;48761;42.680;23.312;2023-02-04T07:52:29;94341.59;;;7.46;53.27
62697;BME280;48761;42.680;23.312;2023-02-04T07:54:55;94341.13;;;7.26;53.80
62697;BME280;48761;42.680;23.312;2023-02-04T07:57:21;94349.66;;;7.17;54.24
62697;BME280;48761;42.680;23.312;2023-02-04T07:59:47;94360.53;;;6.70;54.93
62697;BME280;48761;42.680;23.312;2023-02-04T08:02:13;94348.06;;;6.43;55.43
62697;BME280;48761;42.680;23.312;2023-02-04T08:04:39;94350.91;;;6.25;56.22
62697;BME280;48761;42.680;23.312;2023-02-04T08:07:04;94353.38;;;5.82;57.46
62697;BME280;48761;42.680;23.312;2023-02-04T08:09:30;94356.97;;;5.51;58.32
62697;BME280;48761;42.680;23.312;2023-02-04T08:11:56;94356.97;;;5.51;58.71
62697;BME280;48761;42.680;23.312;2023-02-04T08:14:22;94351.56;;;5.21;59.55
62697;BME280;48761;42.680;23.312;2023-02-04T08:16:48;94352.91;;;5.29;59.48
62697;BME280;48761;42.680;23.312;2023-02-04T08:19:14;94356.34;;;4.98;60.42
62697;BME280;48761;42.680;23.312;2023-02-04T08:21:40;94343.38;;;4.95;60.56
62697;BME280;48761;42.680;23.312;2023-02-04T08:24:06;94369.47;;;5.00;60.76
62697;BME280;48761;42.680;23.312;2023-02-04T08:26:32;94357.97;;;4.68;61.39
62697;BME280;48761;42.680;23.312;2023-02-04T08:28:58;94343.47;;;4.77;61.66
62697;BME280;48761;42.680;23.312;2023-02-04T08:31:23;94357.81;;;4.88;61.51
62697;BME280;48761;42.680;23.312;2023-02-04T08:33:49;94346.09;;;4.77;61.44
62697;BME280;48761;42.680;23.312;2023-02-04T08:36:15;94343.09;;;4.84;61.61
62697;BME280;48761;42.680;23.312;2023-02-04T08:38:41;94311.34;;;4.54;62.20
62697;BME280;48761;42.680;23.312;2023-02-04T08:41:07;94317.63;;;4.68;62.17
62697;BME280;48761;42.680;23.312;2023-02-04T08:43:33;94277.81;;;4.42;62.62
62697;BME280;48761;42.680;23.312;2023-02-04T08:45:59;94302.69;;;4.52;63.10
62697;BME280;48761;42.680;23.312;2023-02-04T08:48:25;94319.66;;;4.63;63.72
62697;BME280;48761;42.680;23.312;2023-02-04T08:50:56;94345.97;;;4.63;64.58
62697;BME280;48761;42.680;23.312;2023-02-04T08:53:29;94300.28;;;4.31;65.04
62697;BME280;48761;42.680;23.312;2023-02-04T08:55:55;94345.66;;;4.69;65.89
62697;BME280;48761;42.680;23.312;2023-02-04T08:58:21;94356.72;;;4.59;66.42
62697;BME280;48761;42.680;23.312;2023-02-04T09:00:47;94318.47;;;4.36;66.67
62697;BME280;48761;42.680;23.312;2023-02-04T09:03:13;94310.38;;;4.23;66.85
62697;BME280;48761;42.680;23.312;2023-02-04T09:05:39;94282.25;;;4.07;66.80
62697;BME280;48761;42.680;23.312;2023-02-04T09:08:05;94308.19;;;4.31;66.79
62697;BME280;48761;42.680;23.312;2023-02-04T09:10:31;94315.03;;;4.18;66.53
62697;BME280;48761;42.680;23.312;2023-02-04T09:12:57;94330.16;;;4.30;66.53
62697;BME280;48761;42.680;23.312;2023-02-04T09:15:24;94327.66;;;4.45;66.56
62697;BME280;48761;42.680;23.312;2023-02-04T09:17:51;94335.47;;;4.46;65.76
62697;BME280;48761;42.680;23.312;2023-02-04T09:20:17;94319.81;;;4.43;66.22
62697;BME280;48761;42.680;23.312;2023-02-04T09:22:43;94334.28;;;4.52;66.19
62697;BME280;48761;42.680;23.312;2023-02-04T09:25:09;94327.22;;;4.36;65.24
62697;BME280;48761;42.680;23.312;2023-02-04T09:27:35;94334.44;;;4.49;65.02
62697;BME280;48761;42.680;23.312;2023-02-04T09:30:01;94333.94;;;4.58;64.51
62697;BME280;48761;42.680;23.312;2023-02-04T09:32:27;94264.09;;;4.02;64.83
62697;BME280;48761;42.680;23.312;2023-02-04T09:34:53;94288.56;;;4.21;65.46
62697;BME280;48761;42.680;23.312;2023-02-04T09:37:19;94341.06;;;4.56;66.05
62697;BME280;48761;42.680;23.312;2023-02-04T09:39:48;94281.13;;;4.29;66.49
62697;BME280;48761;42.680;23.312;2023-02-04T09:42:22;94307.97;;;4.52;67.65
62697;BME280;48761;42.680;23.312;2023-02-04T09:44:50;94307.84;;;4.37;67.96
62697;BME280;48761;42.680;23.312;2023-02-04T09:47:21;94317.28;;;4.58;68.20
62697;BME280;48761;42.680;23.312;2023-02-04T09:49:48;94285.72;;;4.42;68.32
62697;BME280;48761;42.680;23.312;2023-02-04T09:52:16;94324.78;;;4.50;69.89
62697;BME280;48761;42.680;23.312;2023-02-04T09:54:43;94289.25;;;4.24;70.27
62697;BME280;48761;42.680;23.312;2023-02-04T09:57:32;94308.63;;;4.56;70.60
62697;BME280;48761;42.680;23.312;2023-02-04T09:59:58;94288.66;;;4.19;71.29
62697;BME280;48761;42.680;23.312;2023-02-04T10:02:25;94286.84;;;4.20;71.01
62697;BME280;48761;42.680;23.312;2023-02-04T10:04:54;94313.91;;;4.40;71.17
62697;BME280;48761;42.680;23.312;2023-02-04T10:07:21;94276.69;;;4.13;71.66
62697;BME280;48761;42.680;23.312;2023-02-04T10:09:54;94272.59;;;4.08;72.40
62697;BME280;48761;42.680;23.312;2023-02-04T10:12:20;94296.22;;;4.42;72.54
62697;BME280;48761;42.680;23.312;2023-02-04T10:14:46;94288.25;;;4.27;71.85
62697;BME280;48761;42.680;23.312;2023-02-04T10:17:17;94267.00;;;4.30;71.93
62697;BME280;48761;42.680;23.312;2023-02-04T10:19:44;94284.50;;;4.47;70.99
62697;BME280;48761;42.680;23.312;2023-02-04T10:22:16;94286.13;;;4.34;70.70
62697;BME280;48761;42.680;23.312;2023-02-04T10:24:42;94287.47;;;4.25;71.59
62697;BME280;48761;42.680;23.312;2023-02-04T10:27:10;94280.75;;;4.35;71.37
62697;BME280;48761;42.680;23.312;2023-02-04T10:29:37;94247.38;;;4.20;71.74
62697;BME280;48761;42.680;23.312;2023-02-04T10:32:03;94252.09;;;4.14;71.60
62697;BME280;48761;42.680;23.312;2023-02-04T10:34:34;94210.97;;;3.96;71.17
62697;BME280;48761;42.680;23.312;2023-02-04T10:37:20;94254.44;;;4.35;71.76
62697;BME280;48761;42.680;23.312;2023-02-04T10:39:47;94279.59;;;4.41;72.11
62697;BME280;48761;42.680;23.312;2023-02-04T10:42:24;94267.19;;;4.27;73.46
62697;BME280;48761;42.680;23.312;2023-02-04T10:44:51;94253.25;;;4.25;74.20
62697;BME280;48761;42.680;23.312;2023-02-04T10:49:56;94275.34;;;4.39;75.07
62697;BME280;48761;42.680;23.312;2023-02-04T10:52:29;94275.09;;;4.43;74.96
62697;BME280;48761;42.680;23.312;2023-02-04T10:55:00;94273.97;;;4.47;75.30
62697;BME280;48761;42.680;23.312;2023-02-04T10:57:28;94267.25;;;4.25;74.84
62697;BME280;48761;42.680;23.312;2023-02-04T10:59:57;94261.41;;;4.36;75.32
62697;BME280;48761;42.680;23.312;2023-02-04T11:02:35;94271.78;;;4.40;75.87
62697;BME280;48761;42.680;23.312;2023-02-04T11:05:02;94257.00;;;4.37;75.61
62697;BME280;48761;42.680;23.312;2023-02-04T11:07:29;94249.19;;;4.35;74.83
62697;BME280;48761;42.680;23.312;2023-02-04T11:09:55;94238.06;;;4.30;74.45
62697;BME280;48761;42.680;23.312;2023-02-04T11:12:34;94251.91;;;4.34;75.23
62697;BME280;48761;42.680;23.312;2023-02-04T11:15:01;94248.59;;;4.46;75.23
62697;BME280;48761;42.680;23.312;2023-02-04T11:17:29;94246.97;;;4.28;74.32
62697;BME280;48761;42.680;23.312;2023-02-04T11:19:55;94210.81;;;4.31;74.55
62697;BME280;48761;42.680;23.312;2023-02-04T11:22:23;94240.19;;;4.56;74.14
62697;BME280;48761;42.680;23.312;2023-02-04T11:24:50;94228.09;;;4.68;73.92
62697;BME280;48761;42.680;23.312;2023-02-04T11:27:22;94228.88;;;4.70;73.26
62697;BME280;48761;42.680;23.312;2023-02-04T11:29:48;94240.66;;;4.63;73.83
62697;BME280;48761;42.680;23.312;2023-02-04T11:32:33;94232.59;;;4.66;74.37
62697;BME280;48761;42.680;23.312;2023-02-04T11:35:29;94246.78;;;4.79;73.84
62697;BME280;48761;42.680;23.312;2023-02-04T11:37:54;94236.78;;;4.70;73.01
62697;BME280;48761;42.680;23.312;2023-02-04T11:40:34;94238.81;;;4.65;73.42
62697;BME280;48761;42.680;23.312;2023-02-04T11:45:35;94244.09;;;4.65;74.16
62697;BME280;48761;42.680;23.312;2023-02-04T11:48:12;94207.06;;;4.35;73.84
62697;BME280;48761;42.680;23.312;2023-02-04T11:50:39;94210.13;;;4.44;75.22
62697;BME280;48761;42.680;23.312;2023-02-04T11:53:05;94238.03;;;4.63;73.71
62697;BME280;48761;42.680;23.312;2023-02-04T11:55:35;94248.66;;;4.61;73.67
62697;BME280;48761;42.680;23.312;2023-02-04T11:58:01;94238.41;;;4.56;74.06
62697;BME280;48761;42.680;23.312;2023-02-04T12:00:31;94237.06;;;4.49;75.13
62697;BME280;48761;42.680;23.312;2023-02-04T12:03:02;94210.00;;;4.14;74.93
62697;BME280;48761;42.680;23.312;2023-02-04T12:05:39;94220.66;;;4.11;75.07
62697;BME280;48761;42.680;23.312;2023-02-04T12:13:28;94236.38;;;4.29;76.55
62697;BME280;48761;42.680;23.312;2023-02-04T12:18:28;94215.25;;;4.14;76.33
62697;BME280;48761;42.680;23.312;2023-02-04T12:20:55;94237.81;;;4.19;76.78
62697;BME280;48761;42.680;23.312;2023-02-04T12:23:22;94239.84;;;4.13;77.34
62697;BME280;48761;42.680;23.312;2023-02-04T12:25:48;94242.56;;;4.12;77.49
62697;BME280;48761;42.680;23.312;2023-02-04T12:28:14;94230.69;;;4.21;77.19
62697;BME280;48761;42.680;23.312;2023-02-04T12:30:40;94212.19;;;4.06;77.37
62697;BME280;48761;42.680;23.312;2023-02-04T12:33:06;94199.44;;;4.31;76.86
62697;BME280;48761;42.680;23.312;2023-02-04T12:35:33;94216.41;;;4.25;77.49
62697;BME280;48761;42.680;23.312;2023-02-04T12:37:59;94219.63;;;4.30;77.33
62697;BME280;48761;42.680;23.312;2023-02-04T12:40:25;94213.69;;;4.10;77.57
62697;BME280;48761;42.680;23.312;2023-02-04T12:42:51;94226.09;;;4.08;77.76
62697;BME280;48761;42.680;23.312;2023-02-04T12:45:17;94232.28;;;4.07;76.41
62697;BME280;48761;42.680;23.312;2023-02-04T12:47:44;94206.06;;;4.06;75.53
62697;BME280;48761;42.680;23.312;2023-02-04T12:50:12;94196.03;;;4.12;74.81
62697;BME280;48761;42.680;23.312;2023-02-04T12:52:38;94221.41;;;4.46;74.41
62697;BME280;48761;42.680;23.312;2023-02-04T12:55:05;94199.13;;;4.37;74.16
62697;BME280;48761;42.680;23.312;2023-02-04T12:57:32;94202.84;;;4.33;72.96
62697;BME280;48761;42.680;23.312;2023-02-04T12:59:58;94225.41;;;4.53;74.07
62697;BME280;48761;42.680;23.312;2023-02-04T13:02:27;94208.44;;;4.43;72.64
62697;BME280;48761;42.680;23.312;2023-02-04T13:04:53;94222.19;;;4.48;72.29
62697;BME280;48761;42.680;23.312;2023-02-04T13:07:19;94218.44;;;4.20;73.29
62697;BME280;48761;42.680;23.312;2023-02-04T13:09:46;94229.41;;;4.28;73.07
62697;BME280;48761;42.680;23.312;2023-02-04T13:12:13;94234.16;;;4.21;73.37
62697;BME280;48761;42.680;23.312;2023-02-04T13:14:42;94212.50;;;4.00;73.38